Time;durP1;ratioP1;P1;durP2;ratioP2;P2;SDS_P1;SDS_P2;PMS_P1;PMS_P2;Temp;Humidity;BMP_temperature;BMP_pressure;BME280_temperature;BME280_humidity;BME280_pressure;Samples;Min_cycle;Max_cycle;Signal;HPM_P1;HPM_P2
2022/11/30 00:02:16;;;;;;;27.67;17.87;;;9.10;99.90;;;;;;5058045;28;20170;-82
2022/11/30 00:04:41;;;;;;;25.67;17.70;;;9.10;99.90;;;;;;5041406;28;20115;-81
2022/11/30 00:07:07;;;;;;;25.53;16.53;;;9.00;99.90;;;;;;5059544;28;20036;-81
2022/11/30 00:09:33;;;;;;;26.50;17.97;;;9.10;99.90;;;;;;5041332;28;20040;-82
2022/11/30 00:11:58;;;;;;;29.23;18.87;;;9.10;99.90;;;;;;5041448;28;20491;-81
2022/11/30 00:14:24;;;;;;;28.23;18.17;;;9.00;99.90;;;;;;5057406;28;20580;-81
2022/11/30 00:16:49;;;;;;;28.30;18.20;;;9.00;99.90;;;;;;5040903;28;20065;-81
2022/11/30 00:19:15;;;;;;;30.10;20.07;;;9.10;99.90;;;;;;5041168;28;20477;-81
2022/11/30 00:21:40;;;;;;;27.27;17.93;;;9.00;99.90;;;;;;5058019;28;20125;-82
2022/11/30 00:24:06;;;;;;;27.60;18.73;;;9.00;99.90;;;;;;5041594;28;20501;-82
2022/11/30 00:26:32;;;;;;;26.73;17.50;;;9.10;99.90;;;;;;5057729;28;20025;-82
2022/11/30 00:28:57;;;;;;;27.77;17.87;;;9.00;99.90;;;;;;5041239;28;20033;-81
2022/11/30 00:31:23;;;;;;;26.00;17.40;;;9.00;99.90;;;;;;5040974;28;20017;-81
2022/11/30 00:33:49;;;;;;;28.47;17.87;;;9.00;99.90;;;;;;5058097;28;20040;-81
2022/11/30 00:36:17;;;;;;;27.27;17.80;;;8.90;99.90;;;;;;5040701;28;20472;-81
2022/11/30 00:38:43;;;;;;;27.03;17.90;;;8.90;99.90;;;;;;5057853;28;20170;-81
2022/11/30 00:41:09;;;;;;;27.97;17.73;;;8.90;99.90;;;;;;5057571;28;20473;-81
2022/11/30 00:43:35;;;;;;;25.80;17.33;;;8.90;99.90;;;;;;5057317;28;20029;-81
2022/11/30 00:46:01;;;;;;;29.73;18.37;;;8.90;99.90;;;;;;5055051;28;20025;-81
2022/11/30 00:48:26;;;;;;;28.77;17.87;;;8.90;99.90;;;;;;5055733;28;20017;-81
2022/11/30 00:50:52;;;;;;;28.53;17.80;;;8.90;99.90;;;;;;5037789;28;20033;-81
2022/11/30 00:53:18;;;;;;;29.57;18.23;;;8.80;99.90;;;;;;5054331;28;20041;-81
2022/11/30 00:55:46;;;;;;;28.03;17.23;;;8.80;99.90;;;;;;5054389;28;20461;-81
2022/11/30 00:58:12;;;;;;;28.30;18.07;;;8.80;99.90;;;;;;5055317;28;20109;-81
2022/11/30 01:00:38;;;;;;;26.80;17.60;;;8.70;99.90;;;;;;5054231;28;20492;-81
2022/11/30 01:03:04;;;;;;;27.83;17.97;;;8.80;99.90;;;;;;5056019;28;20021;-81
2022/11/30 01:05:32;;;;;;;31.77;18.87;;;8.70;99.90;;;;;;5037617;28;20472;-80
2022/11/30 01:08:02;;;;;;;27.93;18.00;;;8.70;99.90;;;;;;5054605;28;20444;-79
2022/11/30 01:10:28;;;;;;;27.53;17.53;;;8.70;99.90;;;;;;5054050;28;20063;-80
2022/11/30 01:12:54;;;;;;;28.33;18.67;;;8.70;99.90;;;;;;5055377;28;20045;-80
2022/11/30 01:15:20;;;;;;;29.77;18.67;;;8.70;99.90;;;;;;5053246;28;20550;-81
2022/11/30 01:17:45;;;;;;;26.83;17.63;;;8.70;99.90;;;;;;5054757;28;20036;-80
2022/11/30 01:20:11;;;;;;;30.60;19.50;;;8.70;99.90;;;;;;5053811;28;20032;-80
2022/11/30 01:22:37;;;;;;;28.37;17.97;;;8.70;99.90;;;;;;5055064;28;20113;-79
2022/11/30 01:25:03;;;;;;;32.70;18.60;;;8.70;99.90;;;;;;5053983;28;20021;-81
2022/11/30 01:27:29;;;;;;;29.97;18.00;;;8.70;99.90;;;;;;5037258;28;20021;-81
2022/11/30 01:29:55;;;;;;;32.23;19.63;;;8.70;99.90;;;;;;5037138;28;20028;-81
2022/11/30 01:32:21;;;;;;;29.93;18.00;;;8.70;99.90;;;;;;5053846;28;20045;-80
2022/11/30 01:34:46;;;;;;;30.27;19.27;;;8.80;99.90;;;;;;5053808;28;20037;-81
2022/11/30 01:37:12;;;;;;;31.23;18.90;;;8.70;99.90;;;;;;5036619;28;20040;-81
2022/11/30 01:39:38;;;;;;;31.67;19.63;;;8.70;99.90;;;;;;5037216;28;20021;-80
2022/11/30 01:42:05;;;;;;;29.73;18.27;;;8.50;99.90;;;;;;5036815;28;20547;-80
2022/11/30 01:44:30;;;;;;;29.70;19.17;;;8.70;99.90;;;;;;5054550;28;20078;-80
2022/11/30 01:46:58;;;;;;;30.23;18.37;;;8.60;99.90;;;;;;5053658;28;20029;-80
2022/11/30 01:49:27;;;;;;;30.37;17.73;;;8.70;99.90;;;;;;5054622;28;20086;-80
2022/11/30 01:52:01;;;;;;;30.23;18.27;;;8.70;99.90;;;;;;5053312;28;20032;-80
2022/11/30 01:54:41;;;;;;;34.08;18.75;;;8.60;99.90;;;;;;5053116;28;20074;-80
2022/11/30 01:57:19;;;;;;;28.47;18.57;;;8.60;99.90;;;;;;5053427;28;20106;-80
2022/11/30 01:59:46;;;;;;;33.00;17.83;;;8.60;99.90;;;;;;5053174;28;20453;-80
2022/11/30 02:02:12;;;;;;;27.73;18.17;;;8.60;99.90;;;;;;5052756;28;20040;-80
2022/11/30 02:04:38;;;;;;;31.87;20.27;;;8.60;99.90;;;;;;5036753;28;20389;-80
2022/11/30 02:07:06;;;;;;;31.70;19.67;;;8.60;99.90;;;;;;5036443;28;20091;-80
2022/11/30 02:09:40;;;;;;;28.37;18.00;;;8.60;99.90;;;;;;5052822;28;20138;-80
2022/11/30 02:12:10;;;;;;;32.00;20.33;;;8.50;99.90;;;;;;5054544;28;20029;-80
2022/11/30 02:14:46;;;;;;;27.93;17.73;;;8.60;99.90;;;;;;5052957;28;20017;-81
2022/11/30 02:17:49;;;;;;;30.90;19.67;;;8.50;99.90;;;;;;5053814;28;20048;-80
2022/11/30 02:20:25;;;;;;;33.97;19.63;;;8.60;99.90;;;;;;5052755;28;20424;-80
2022/11/30 02:23:06;;;;;;;29.57;18.40;;;8.50;99.90;;;;;;5052978;28;20025;-81
2022/11/30 02:25:57;;;;;;;32.47;18.93;;;8.50;99.90;;;;;;5052748;28;20037;-81
2022/11/30 02:28:44;;;;;;;30.67;18.03;;;8.50;99.90;;;;;;5054295;28;20029;-81
2022/11/30 02:31:15;;;;;;;30.83;19.17;;;8.50;99.90;;;;;;5052518;28;20021;-81
2022/11/30 02:33:42;;;;;;;32.43;19.73;;;8.30;99.90;;;;;;5053346;28;20045;-81
2022/11/30 02:36:09;;;;;;;31.77;18.97;;;8.40;99.90;;;;;;5053898;28;20033;-81
2022/11/30 02:38:35;;;;;;;27.53;18.20;;;8.40;99.90;;;;;;5035839;28;20029;-81
2022/11/30 02:41:02;;;;;;;29.03;17.50;;;8.40;99.90;;;;;;5035937;28;20029;-81
2022/11/30 02:43:29;;;;;;;33.50;20.00;;;8.30;99.90;;;;;;5035709;28;20029;-81
2022/11/30 02:46:15;;;;;;;29.47;18.80;;;8.40;99.90;;;;;;5052327;28;20481;-81
2022/11/30 02:49:00;;;;;;;33.30;18.97;;;8.30;99.90;;;;;;5052747;28;20029;-81
2022/11/30 02:51:28;;;;;;;;;;;8.30;99.90;;;;;;5053892;28;20025;-81
2022/11/30 02:53:54;;;;;;;27.97;17.47;;;8.30;99.90;;;;;;5052316;28;19916;-81
2022/11/30 02:56:21;;;;;;;30.87;18.10;;;8.40;99.90;;;;;;5052117;28;20033;-81
2022/11/30 02:58:47;;;;;;;30.20;18.30;;;8.40;99.90;;;;;;5035678;28;20464;-81
2022/11/30 03:01:12;;;;;;;30.73;18.37;;;8.30;99.90;;;;;;5051976;28;20443;-81
2022/11/30 03:03:38;;;;;;;29.47;18.67;;;8.30;99.90;;;;;;5051753;28;20029;-80
2022/11/30 03:06:04;;;;;;;30.93;19.03;;;8.40;99.90;;;;;;5035539;28;20021;-82
2022/11/30 03:08:29;;;;;;;30.83;19.17;;;8.30;99.90;;;;;;5051769;28;20043;-81
2022/11/30 03:10:55;;;;;;;33.17;18.60;;;8.40;99.90;;;;;;5052195;28;20030;-82
2022/11/30 03:13:21;;;;;;;33.13;18.90;;;8.30;99.90;;;;;;5051366;28;20050;-82
2022/11/30 03:15:46;;;;;;;36.27;21.33;;;8.30;99.90;;;;;;5051912;28;20432;-82
2022/11/30 03:18:12;;;;;;;29.70;18.73;;;8.30;99.90;;;;;;5051480;28;20060;-82
2022/11/30 03:20:42;;;;;;;31.90;19.07;;;8.30;99.90;;;;;;5035766;28;20033;-82
2022/11/30 03:23:07;;;;;;;34.27;19.37;;;8.30;99.90;;;;;;5052195;28;20111;-82
2022/11/30 03:25:33;;;;;;;29.37;18.77;;;8.30;99.90;;;;;;5051798;28;20075;-82
2022/11/30 03:28:02;;;;;;;32.90;20.37;;;8.30;99.90;;;;;;5051759;28;20033;-81
2022/11/30 03:30:28;;;;;;;34.27;20.07;;;8.30;99.90;;;;;;5051511;28;20495;-82
2022/11/30 03:32:53;;;;;;;31.40;19.43;;;8.20;99.90;;;;;;5051786;28;20131;-82
2022/11/30 03:35:19;;;;;;;32.30;20.27;;;8.20;99.90;;;;;;5051941;28;20029;-82
2022/11/30 03:37:46;;;;;;;32.33;21.70;;;8.20;99.90;;;;;;5051657;28;20017;-82
2022/11/30 03:40:12;;;;;;;30.43;19.03;;;8.20;99.90;;;;;;5051667;28;20025;-82
2022/11/30 03:42:37;;;;;;;35.37;20.73;;;8.20;99.90;;;;;;5035139;28;20443;-81
2022/11/30 03:45:03;;;;;;;31.27;20.00;;;8.30;99.90;;;;;;5051952;28;20033;-81
2022/11/30 03:47:29;;;;;;;33.13;20.10;;;8.20;99.90;;;;;;5035060;28;20033;-81
2022/11/30 03:49:54;;;;;;;32.90;19.83;;;8.20;99.90;;;;;;5052394;28;20033;-81
2022/11/30 03:52:20;;;;;;;33.43;20.57;;;8.20;99.90;;;;;;5035084;28;20041;-81
2022/11/30 03:54:46;;;;;;;35.93;20.10;;;8.20;99.90;;;;;;5035029;28;20025;-81
2022/11/30 03:57:11;;;;;;;30.27;19.30;;;8.20;99.90;;;;;;5034921;28;20389;-81
2022/11/30 03:59:37;;;;;;;34.37;21.43;;;8.20;99.90;;;;;;5035089;28;20029;-82
2022/11/30 04:02:03;;;;;;;33.97;20.80;;;8.20;99.90;;;;;;5051240;28;20095;-81
2022/11/30 04:04:28;;;;;;;29.23;18.60;;;8.20;99.90;;;;;;5034992;28;20025;-81
2022/11/30 04:06:54;;;;;;;30.13;19.20;;;8.20;99.90;;;;;;5051593;28;20072;-82
2022/11/30 04:09:19;;;;;;;33.03;17.67;;;8.20;99.90;;;;;;5034873;28;20036;-82
2022/11/30 04:11:45;;;;;;;38.97;19.23;;;8.20;99.90;;;;;;5051383;28;20061;-82
2022/11/30 04:14:11;;;;;;;30.37;17.27;;;8.10;99.90;;;;;;5050730;28;20039;-82
2022/11/30 04:16:37;;;;;;;30.80;18.47;;;8.10;99.90;;;;;;5034413;28;20059;-82
2022/11/30 04:19:02;;;;;;;31.53;18.87;;;8.10;99.90;;;;;;5051354;28;20036;-82
2022/11/30 04:21:28;;;;;;;31.03;19.27;;;7.90;99.90;;;;;;5036704;28;20040;-81
2022/11/30 04:23:54;;;;;;;32.63;19.27;;;7.90;99.90;;;;;;5055977;28;20040;-81
2022/11/30 04:26:19;;;;;;;29.80;19.07;;;7.90;99.90;;;;;;5038440;28;20025;-81
2022/11/30 04:28:45;;;;;;;35.33;19.63;;;7.80;99.90;;;;;;5054959;28;20137;-81
2022/11/30 04:31:11;;;;;;;33.67;19.53;;;7.80;99.90;;;;;;5055072;28;20028;-82
2022/11/30 04:33:36;;;;;;;34.57;19.80;;;7.70;99.90;;;;;;5054984;28;20033;-81
2022/11/30 04:36:04;;;;;;;32.83;19.00;;;7.60;99.90;;;;;;5038250;28;20376;-81
2022/11/30 04:38:31;;;;;;;32.37;19.13;;;7.60;99.90;;;;;;5055942;28;20143;-81
2022/11/30 04:40:57;;;;;;;33.17;20.43;;;7.60;99.90;;;;;;5038194;28;20493;-81
2022/11/30 04:43:23;;;;;;;35.40;20.30;;;7.50;99.90;;;;;;5037930;28;20120;-81
2022/11/30 04:45:49;;;;;;;33.83;20.40;;;7.40;99.90;;;;;;5054441;28;20025;-81
2022/11/30 04:48:16;;;;;;;34.17;19.53;;;7.50;99.90;;;;;;5054835;28;20021;-80
2022/11/30 04:50:42;;;;;;;36.27;20.10;;;7.40;99.90;;;;;;5055662;28;20096;-81
2022/11/30 04:53:08;;;;;;;34.73;19.90;;;7.30;99.90;;;;;;5056503;28;20047;-81
2022/11/30 04:55:36;;;;;;;35.80;19.80;;;7.30;99.90;;;;;;5072582;28;20036;-81
2022/11/30 04:58:02;;;;;;;33.70;20.37;;;7.20;99.90;;;;;;5072805;28;20017;-81
2022/11/30 05:00:28;;;;;;;35.13;19.30;;;7.20;99.90;;;;;;5056652;28;20043;-81
2022/11/30 05:02:55;;;;;;;34.13;18.43;;;7.10;99.90;;;;;;5040775;28;20033;-81
2022/11/30 05:05:21;;;;;;;32.80;18.00;;;7.00;99.90;;;;;;5073033;28;20384;-80
2022/11/30 05:07:54;;;;;;;27.47;16.37;;;7.00;99.90;;;;;;5056218;28;20033;-80
2022/11/30 05:10:20;;;;;;;29.17;16.50;;;6.90;99.90;;;;;;5066080;28;20021;-80
2022/11/30 05:12:45;;;;;;;30.13;16.57;;;6.90;99.90;;;;;;5052298;28;20040;-80
2022/11/30 05:15:11;;;;;;;28.93;17.87;;;6.90;99.90;;;;;;5040568;28;20494;-81
2022/11/30 05:17:37;;;;;;;33.70;18.70;;;6.80;99.90;;;;;;5026475;28;20195;-81
2022/11/30 05:20:03;;;;;;;29.97;16.97;;;6.70;99.90;;;;;;5052626;28;20028;-80
2022/11/30 05:22:28;;;;;;;27.73;15.67;;;6.70;99.90;;;;;;5035840;28;20066;-80
2022/11/30 05:24:54;;;;;;;36.20;16.60;;;6.60;99.90;;;;;;5037275;28;20033;-81
2022/11/30 05:27:19;;;;;;;30.30;17.53;;;6.60;99.90;;;;;;5053736;28;20496;-80
2022/11/30 05:29:45;;;;;;;34.03;18.17;;;6.50;99.90;;;;;;5037041;28;20025;-81
2022/11/30 05:32:11;;;;;;;30.83;18.07;;;6.50;99.90;;;;;;5036849;28;20125;-81
2022/11/30 05:34:36;;;;;;;32.30;17.90;;;6.50;99.90;;;;;;5053673;28;20033;-81
2022/11/30 05:37:02;;;;;;;33.47;19.10;;;6.40;99.90;;;;;;5055028;28;20373;-81
2022/11/30 05:39:27;;;;;;;36.83;20.70;;;6.40;99.90;;;;;;5037043;28;20033;-81
2022/11/30 05:41:53;;;;;;;35.30;18.40;;;6.40;99.90;;;;;;5036757;28;20037;-81
2022/11/30 05:44:18;;;;;;;35.00;18.67;;;6.30;99.90;;;;;;5053272;28;20107;-80
2022/11/30 05:46:44;;;;;;;29.53;16.40;;;6.30;99.90;;;;;;5036990;28;20036;-80
2022/11/30 05:49:10;;;;;;;35.27;18.80;;;6.30;99.90;;;;;;5036704;28;20522;-80
2022/11/30 05:51:35;;;;;;;34.83;18.87;;;6.30;99.90;;;;;;5036723;28;20025;-80
2022/11/30 05:54:01;;;;;;;34.40;19.20;;;6.20;99.90;;;;;;5036724;28;20075;-80
2022/11/30 05:56:26;;;;;;;30.33;17.93;;;6.20;99.90;;;;;;5036314;28;20381;-81
2022/11/30 05:58:52;;;;;;;36.27;17.97;;;6.20;99.90;;;;;;5036824;28;20029;-81
2022/11/30 06:01:23;;;;;;;34.10;19.33;;;6.20;99.90;;;;;;5052879;28;20121;-80
2022/11/30 06:03:49;;;;;;;33.10;18.53;;;6.20;99.90;;;;;;5053289;28;20021;-80
2022/11/30 06:06:15;;;;;;;35.70;19.40;;;6.10;99.90;;;;;;5052934;28;20552;-80
2022/11/30 06:08:41;;;;;;;31.07;17.33;;;6.10;99.90;;;;;;5053104;28;20070;-80
2022/11/30 06:11:06;;;;;;;33.63;19.07;;;6.10;99.90;;;;;;5053201;28;20029;-80
2022/11/30 06:13:32;;;;;;;34.20;19.27;;;6.10;99.90;;;;;;5052646;28;20131;-81
2022/11/30 06:16:00;;;;;;;30.77;17.70;;;6.10;99.90;;;;;;5053256;28;20440;-81
2022/11/30 06:18:25;;;;;;;35.17;19.20;;;6.00;99.90;;;;;;5052748;28;20044;-81
2022/11/30 06:20:51;;;;;;;35.77;18.93;;;6.00;99.90;;;;;;5053869;28;20025;-81
2022/11/30 06:23:16;;;;;;;30.97;18.30;;;6.00;99.90;;;;;;5036330;28;20029;-81
2022/11/30 06:25:42;;;;;;;33.53;17.97;;;5.90;99.90;;;;;;5036244;28;20527;-81
2022/11/30 06:28:09;;;;;;;32.77;18.87;;;6.00;99.90;;;;;;5053813;28;20028;-80
2022/11/30 06:30:35;;;;;;;32.90;18.23;;;5.90;99.90;;;;;;5052624;28;20044;-81
2022/11/30 06:33:01;;;;;;;34.73;19.27;;;5.90;99.90;;;;;;5052103;28;20037;-80
2022/11/30 06:35:26;;;;;;;36.43;18.43;;;5.80;99.90;;;;;;5036100;28;20036;-80
2022/11/30 06:37:53;;;;;;;35.10;18.67;;;5.80;99.90;;;;;;5036014;28;20440;-79
2022/11/30 06:40:19;;;;;;;33.33;18.00;;;5.80;99.90;;;;;;5035872;28;20028;-81
2022/11/30 06:42:45;;;;;;;33.17;18.70;;;5.70;99.90;;;;;;5069455;28;20377;-80
2022/11/30 06:45:11;;;;;;;36.13;18.97;;;5.70;99.90;;;;;;5034803;28;20025;-81
2022/11/30 06:47:36;;;;;;;31.57;17.57;;;5.70;99.90;;;;;;5052297;28;20025;-81
2022/11/30 06:50:03;;;;;;;33.87;17.40;;;5.70;99.90;;;;;;5051875;28;20476;-80
2022/11/30 06:52:30;;;;;;;30.43;16.33;;;5.70;99.90;;;;;;5072402;28;20040;-80
2022/11/30 06:54:55;;;;;;;28.80;16.40;;;5.70;99.90;;;;;;5073040;28;20153;-80
2022/11/30 06:57:28;;;;;;;49.67;17.20;;;5.60;99.90;;;;;;5055397;28;20480;-81
2022/11/30 06:59:54;;;;;;;29.77;15.97;;;5.60;99.90;;;;;;5073622;28;20042;-80
2022/11/30 07:02:19;;;;;;;30.43;16.30;;;5.60;99.90;;;;;;5070430;28;20036;-81
2022/11/30 07:04:45;;;;;;;30.13;15.43;;;5.50;99.90;;;;;;5049336;28;20033;-80
2022/11/30 07:07:11;;;;;;;30.33;16.60;;;5.50;99.90;;;;;;5043389;28;20434;-80
2022/11/30 07:09:36;;;;;;;28.30;16.20;;;5.50;99.90;;;;;;5063718;28;20100;-80
2022/11/30 07:12:03;;;;;;;29.13;15.93;;;5.50;99.90;;;;;;5060514;28;20037;-80
2022/11/30 07:14:29;;;;;;;29.17;17.23;;;5.40;99.90;;;;;;5043680;28;20032;-80
2022/11/30 07:16:55;;;;;;;33.03;16.47;;;5.40;99.90;;;;;;5045345;28;20032;-80
2022/11/30 07:19:21;;;;;;;31.20;17.57;;;5.30;99.90;;;;;;5060111;28;20033;-81
2022/11/30 07:21:47;;;;;;;30.30;16.50;;;5.30;99.90;;;;;;5060574;28;20404;-80
2022/11/30 07:27:01;;;;;;;;;;;5.40;99.90;;;;;;5064274;28;20083;-80
2022/11/30 07:29:27;;;;;;;25.57;15.30;;;5.40;99.90;;;;;;5077643;28;19999;-80
2022/11/30 07:31:53;;;;;;;27.73;15.73;;;5.40;99.90;;;;;;5045471;28;20116;-80
2022/11/30 07:34:19;;;;;;;24.50;13.77;;;5.30;99.90;;;;;;5068599;28;20025;-80
2022/11/30 07:36:47;;;;;;;24.10;14.67;;;5.30;99.90;;;;;;5062101;28;20025;-80
2022/11/30 07:39:13;;;;;;;24.40;13.97;;;5.30;99.90;;;;;;5062114;28;20063;-80
2022/11/30 07:41:39;;;;;;;24.00;14.17;;;5.30;99.90;;;;;;5062487;28;20031;-80
2022/11/30 07:44:06;;;;;;;24.73;14.30;;;5.40;99.90;;;;;;5060670;28;20032;-80
2022/11/30 07:46:34;;;;;;;26.53;14.90;;;5.40;99.90;;;;;;5088036;28;20024;-81
2022/11/30 07:49:01;;;;;;;24.10;14.47;;;5.40;99.90;;;;;;5071318;28;20123;-82
2022/11/30 07:51:27;;;;;;;27.40;14.70;;;5.40;99.90;;;;;;5054942;28;20063;-81
2022/11/30 07:53:55;;;;;;;32.63;15.10;;;5.50;99.90;;;;;;5055282;28;20063;-80
2022/11/30 07:56:21;;;;;;;35.40;15.43;;;5.40;99.90;;;;;;5074853;28;20503;-81
2022/11/30 07:58:49;;;;;;;38.50;15.07;;;5.40;99.90;;;;;;5075520;28;20043;-81
2022/11/30 08:01:18;;;;;;;48.43;15.47;;;5.50;99.90;;;;;;5075836;28;20016;-81
2022/11/30 08:03:44;;;;;;;50.90;14.73;;;5.50;99.90;;;;;;5075272;28;20044;-81
2022/11/30 08:06:12;;;;;;;57.07;14.57;;;5.50;99.90;;;;;;5058965;28;20473;-81
2022/11/30 08:08:42;;;;;;;44.60;13.90;;;5.60;99.90;;;;;;5076368;28;20141;-81
2022/11/30 08:11:10;;;;;;;40.67;14.37;;;5.50;99.90;;;;;;5074632;28;20466;-80
2022/11/30 08:13:36;;;;;;;45.07;13.83;;;5.60;99.90;;;;;;5065282;28;20069;-79
2022/11/30 08:16:03;;;;;;;30.37;13.13;;;5.70;99.90;;;;;;5073513;28;20450;-80
2022/11/30 08:18:29;;;;;;;32.63;13.83;;;5.60;99.90;;;;;;5075033;28;20044;-80
2022/11/30 08:20:59;;;;;;;36.47;13.20;;;5.60;99.90;;;;;;5058346;28;20033;-79
2022/11/30 08:23:46;;;;;;;26.43;14.47;;;5.70;99.90;;;;;;5074546;28;20028;-80
2022/11/30 08:26:18;;;;;;;26.73;14.10;;;5.70;99.90;;;;;;5079165;28;20163;-80
2022/11/30 08:28:45;;;;;;;25.47;14.43;;;5.80;99.90;;;;;;5053392;28;20028;-80
2022/11/30 08:31:17;;;;;;;21.80;14.10;;;5.80;99.90;;;;;;5054490;28;20051;-84
2022/11/30 08:33:43;;;;;;;21.83;13.30;;;5.90;99.90;;;;;;5054764;28;20041;-80
2022/11/30 08:36:11;;;;;;;21.03;13.03;;;6.00;99.90;;;;;;5074250;28;20040;-80
2022/11/30 08:38:39;;;;;;;20.07;13.30;;;6.00;99.90;;;;;;5074485;28;20029;-79
2022/11/30 08:41:06;;;;;;;22.80;14.80;;;6.10;99.90;;;;;;5057446;28;20024;-80
2022/11/30 08:43:32;;;;;;;22.27;14.33;;;6.10;99.90;;;;;;5057444;28;20037;-81
2022/11/30 08:45:58;;;;;;;22.93;15.20;;;6.20;99.90;;;;;;5057754;28;20111;-82
2022/11/30 08:48:23;;;;;;;25.77;14.80;;;6.30;99.90;;;;;;5074141;28;20078;-83
2022/11/30 08:50:49;;;;;;;23.17;16.13;;;6.40;99.90;;;;;;5057685;28;20033;-77
2022/11/30 08:53:15;;;;;;;23.57;15.13;;;6.30;99.90;;;;;;5073998;28;20032;-79
2022/11/30 08:55:41;;;;;;;24.87;15.70;;;6.30;99.90;;;;;;5074231;28;20020;-77
2022/11/30 08:58:07;;;;;;;24.90;15.83;;;6.40;99.90;;;;;;5057677;28;20062;-78
2022/11/30 09:00:32;;;;;;;27.57;15.23;;;6.40;99.90;;;;;;5074785;28;20047;-77
2022/11/30 09:02:58;;;;;;;25.13;15.77;;;6.50;99.90;;;;;;5057586;28;20111;-77
2022/11/30 09:05:24;;;;;;;28.33;15.60;;;6.50;99.90;;;;;;5073933;28;20037;-77
2022/11/30 09:07:49;;;;;;;26.13;15.30;;;6.50;99.90;;;;;;5056816;28;20105;-77
2022/11/30 09:10:15;;;;;;;29.07;17.53;;;6.50;99.90;;;;;;5074946;28;20029;-77
2022/11/30 09:12:41;;;;;;;28.10;17.90;;;6.50;99.90;;;;;;5074128;28;20049;-77
2022/11/30 09:15:08;;;;;;;28.47;17.07;;;6.60;99.90;;;;;;5073713;28;20033;-77
2022/11/30 09:17:34;;;;;;;28.67;18.10;;;6.60;99.90;;;;;;5075571;28;20025;-77
2022/11/30 09:20:00;;;;;;;26.17;16.23;;;6.60;99.90;;;;;;5057131;28;20052;-77
2022/11/30 09:22:27;;;;;;;29.07;17.63;;;6.70;99.90;;;;;;5073995;28;20798;-77
2022/11/30 09:24:53;;;;;;;29.57;17.80;;;6.80;99.90;;;;;;5056932;28;20392;-77
2022/11/30 09:27:18;;;;;;;29.80;18.67;;;6.80;99.90;;;;;;5063760;28;20026;-77
2022/11/30 09:29:44;;;;;;;32.23;18.40;;;6.90;99.90;;;;;;5054914;28;20028;-77
2022/11/30 09:32:10;;;;;;;29.73;18.50;;;6.90;99.90;;;;;;5054470;28;20430;-77
2022/11/30 09:34:36;;;;;;;30.60;18.47;;;7.10;99.90;;;;;;5053417;28;20083;-77
2022/11/30 09:37:01;;;;;;;28.93;17.43;;;7.10;99.90;;;;;;5053437;28;20132;-77
2022/11/30 09:39:27;;;;;;;30.47;19.23;;;7.20;99.90;;;;;;5053493;28;20029;-77
2022/11/30 09:42:04;;;;;;;34.93;20.40;;;7.20;99.90;;;;;;5036980;28;20025;-77
2022/11/30 09:44:49;;;;;;;30.73;18.47;;;7.20;99.90;;;;;;5053241;28;20033;-77
2022/11/30 09:47:27;;;;;;;34.20;21.23;;;7.30;99.90;;;;;;5053252;28;20029;-77
2022/11/30 09:49:54;;;;;;;37.13;21.73;;;7.30;99.90;;;;;;5053378;28;20021;-77
2022/11/30 09:52:27;;;;;;;35.37;19.83;;;7.30;99.90;;;;;;5054182;28;20495;-77
2022/11/30 09:54:55;;;;;;;36.13;20.23;;;7.50;99.90;;;;;;5054527;28;20113;-77
2022/11/30 09:57:44;;;;;;;34.60;21.43;;;7.50;99.90;;;;;;5054437;28;20459;-77
2022/11/30 10:00:20;;;;;;;34.67;19.93;;;7.60;99.90;;;;;;5052737;28;20021;-77
2022/11/30 10:02:48;;;;;;;35.27;20.37;;;7.60;99.90;;;;;;5053154;28;20027;-77
2022/11/30 10:05:27;;;;;;;35.00;21.60;;;7.60;99.90;;;;;;5071514;28;20350;-77
2022/11/30 10:08:18;;;;;;;30.80;18.90;;;7.70;99.90;;;;;;5071392;28;20016;-77
2022/11/30 10:11:17;;;;;;;32.93;20.33;;;7.80;99.90;;;;;;5074173;28;20510;-77
2022/11/30 10:13:55;;;;;;;30.23;19.30;;;7.90;99.90;;;;;;5073830;28;20527;-77
2022/11/30 10:16:41;;;;;;;32.40;19.43;;;8.00;99.90;;;;;;5072890;28;20029;-77
2022/11/30 10:19:44;;;;;;;30.73;19.13;;;8.20;99.90;;;;;;5071700;28;20044;-77
2022/11/30 10:22:19;;;;;;;29.50;18.03;;;8.30;99.90;;;;;;5055368;28;20045;-77
2022/11/30 10:25:13;;;;;;;28.60;17.73;;;8.60;99.90;;;;;;5062521;28;20064;-77
2022/11/30 10:27:49;;;;;;;25.48;16.45;;;8.80;99.90;;;;;;5064600;28;20410;-77
2022/11/30 10:30:21;;;;;;;24.03;16.70;;;9.00;99.90;;;;;;5070247;28;20105;-77
2022/11/30 10:32:50;;;;;;;22.48;14.77;;;9.30;99.90;;;;;;5071879;28;20040;-77
2022/11/30 10:35:38;;;;;;;24.15;15.82;;;9.60;99.90;;;;;;5068715;28;20028;-78
2022/11/30 10:38:13;;;;;;;23.27;13.65;;;10.00;99.90;;;;;;5065159;28;20321;-77
2022/11/30 10:40:56;;;;;;;21.83;13.55;;;10.50;99.90;;;;;;5065045;28;20073;-81
2022/11/30 10:43:28;;;;;;;21.17;13.48;;;11.10;99.90;;;;;;5056961;28;20028;-85
2022/11/30 10:45:53;;;;;;;18.90;12.98;;;11.70;99.90;;;;;;5053624;28;20025;-81
2022/11/30 10:48:42;;;;;;;18.13;12.18;;;12.30;99.90;;;;;;5035313;28;20029;-81
2022/11/30 10:51:10;;;;;;;16.30;11.57;;;13.00;99.90;;;;;;5052337;28;20021;-80
2022/11/30 10:53:36;;;;;;;15.65;10.95;;;13.80;99.90;;;;;;5051739;28;20060;-78
2022/11/30 10:56:10;;;;;;;14.07;10.13;;;14.50;99.90;;;;;;5052849;28;20465;-78
2022/11/30 10:59:02;;;;;;;15.15;9.82;;;15.20;99.90;;;;;;5051563;28;20032;-77
2022/11/30 11:01:34;;;;;;;15.18;11.15;;;15.60;99.90;;;;;;5051958;28;20485;-80
2022/11/30 11:04:17;;;;;;;13.02;9.48;;;15.90;99.90;;;;;;5066821;28;20503;-81
2022/11/30 11:06:48;;;;;;;12.55;9.20;;;16.10;99.10;;;;;;5057797;28;20028;-80
2022/11/30 11:09:29;;;;;;;12.65;9.52;;;16.30;98.30;;;;;;5063386;28;20032;-80
2022/11/30 11:11:57;;;;;;;12.70;9.57;;;16.50;95.80;;;;;;5051508;28;20052;-80
2022/11/30 11:14:25;;;;;;;13.55;9.52;;;16.70;94.30;;;;;;5051872;28;20025;-80
2022/11/30 11:16:56;;;;;;;13.98;9.63;;;16.70;92.80;;;;;;5072725;28;20024;-80
2022/11/30 11:19:32;;;;;;;12.60;9.52;;;16.50;91.70;;;;;;5071162;28;20048;-82
2022/11/30 11:21:59;;;;;;;14.00;8.88;;;16.40;90.40;;;;;;5072370;28;20472;-79
2022/11/30 11:24:26;;;;;;;11.98;8.38;;;16.30;90.00;;;;;;5051394;28;20040;-81
2022/11/30 11:26:54;;;;;;;14.18;9.95;;;16.20;87.90;;;;;;5043083;28;20051;-80
2022/11/30 11:29:30;;;;;;;14.55;10.60;;;16.10;86.50;;;;;;5060975;28;20044;-80
2022/11/30 11:32:07;;;;;;;15.80;10.50;;;16.00;84.70;;;;;;5062150;28;20020;-83
2022/11/30 11:34:35;;;;;;;16.23;10.30;;;15.90;83.40;;;;;;5054218;28;20029;-84
2022/11/30 11:37:28;;;;;;;15.13;10.85;;;15.90;83.00;;;;;;5051610;28;20067;-84
2022/11/30 11:40:15;;;;;;;16.75;11.10;;;15.90;82.70;;;;;;5067275;28;20069;-84
2022/11/30 11:42:52;;;;;;;15.55;10.48;;;15.90;81.70;;;;;;5070355;28;20020;-84
2022/11/30 11:45:27;;;;;;;15.50;10.68;;;15.80;80.40;;;;;;5071641;28;20040;-84
2022/11/30 11:47:57;;;;;;;16.05;10.68;;;16.00;80.60;;;;;;5069070;28;20033;-84
2022/11/30 11:50:34;;;;;;;14.18;10.32;;;16.30;81.00;;;;;;5056613;28;20376;-84
2022/11/30 11:53:21;;;;;;;15.27;10.65;;;16.60;80.80;;;;;;5052657;28;20039;-81
2022/11/30 11:55:56;;;;;;;14.10;9.73;;;17.00;78.90;;;;;;5051315;28;20485;-80
2022/11/30 11:58:44;;;;;;;13.95;10.23;;;17.40;79.10;;;;;;5051332;28;20029;-89
2022/11/30 12:01:20;;;;;;;13.57;9.70;;;17.80;76.80;;;;;;5051743;28;20443;-81
2022/11/30 12:04:11;;;;;;;12.60;8.55;;;18.30;76.20;;;;;;5052489;28;20025;-81
2022/11/30 12:06:41;;;;;;;12.90;9.23;;;18.90;75.00;;;;;;5051162;28;20036;-80
2022/11/30 12:09:14;;;;;;;12.93;9.30;;;19.30;73.90;;;;;;5051463;28;20035;-80
2022/11/30 12:11:46;;;;;;;13.05;9.32;;;19.60;70.60;;;;;;5050260;28;20033;-81
2022/11/30 12:14:15;;;;;;;15.98;9.35;;;19.80;68.90;;;;;;5051085;28;20021;-80
2022/11/30 12:17:04;;;;;;;11.10;8.27;;;20.10;68.40;;;;;;5052460;28;20413;-83
2022/11/30 12:19:57;;;;;;;12.73;8.55;;;20.50;67.20;;;;;;5050909;28;20059;-81
2022/11/30 12:22:50;;;;;;;13.85;9.35;;;20.90;66.00;;;;;;5051188;28;20063;-80
2022/11/30 12:25:43;;;;;;;12.30;8.30;;;21.10;64.40;;;;;;5051201;28;20092;-80
2022/11/30 12:28:23;;;;;;;11.57;7.80;;;21.10;62.00;;;;;;5051023;28;20021;-83
2022/11/30 12:30:54;;;;;;;12.27;8.15;;;21.10;61.00;;;;;;5052508;28;20029;-81
2022/11/30 12:33:29;;;;;;;12.60;8.40;;;20.60;59.40;;;;;;5052467;28;20052;-88
2022/11/30 12:36:06;;;;;;;12.13;8.88;;;19.90;58.80;;;;;;5058966;28;20112;-85
2022/11/30 12:39:07;;;;;;;13.35;9.30;;;19.20;59.30;;;;;;5050662;28;20381;-81
2022/11/30 12:41:41;;;;;;;15.38;9.60;;;18.40;59.80;;;;;;5067938;28;20029;-80
2022/11/30 12:44:19;;;;;;;16.80;9.00;;;17.70;60.30;;;;;;5072399;28;20063;-81
2022/11/30 12:46:55;;;;;;;15.27;9.80;;;17.00;60.90;;;;;;5075200;28;20469;-82
2022/11/30 12:49:43;;;;;;;15.80;10.02;;;16.50;61.90;;;;;;5074314;28;20062;-81
2022/11/30 12:52:52;;;;;;;16.73;10.60;;;15.80;63.00;;;;;;5090905;28;20038;-82